Time;durP1;ratioP1;P1;durP2;ratioP2;P2;SDS_P1;SDS_P2;PMS_P1;PMS_P2;Temp;Humidity;BMP_temperature;BMP_pressure;BME280_temperature;BME280_humidity;BME280_pressure;Samples;Min_cycle;Max_cycle;Signal;HPM_P1;HPM_P2
2021/06/11 00:01:43;;;;;;;;;;;9.60;99.90;;;;;;5093156;28;19908;-68
2021/06/11 00:04:09;;;;;;;;;;;9.60;99.90;;;;;;5093091;28;19923;-69
2021/06/11 00:06:36;;;;;;;;;;;9.70;99.90;;;;;;5093012;28;19909;-68
2021/06/11 00:09:04;;;;;;;;;;;9.70;99.90;;;;;;5092800;28;19912;-67
2021/06/11 00:11:30;;;;;;;;;;;9.70;99.90;;;;;;5092920;28;19915;-68
2021/06/11 00:13:57;;;;;;;;;;;9.80;99.90;;;;;;5092785;28;19908;-68
2021/06/11 00:16:24;;;;;;;;;;;9.80;99.90;;;;;;5093029;28;19912;-70
2021/06/11 00:18:50;;;;;;;;;;;9.80;99.90;;;;;;5092983;28;19908;-67
2021/06/11 00:21:17;;;;;;;;;;;9.90;99.90;;;;;;5092961;28;20300;-67
2021/06/11 00:23:43;;;;;;;;;;;10.00;99.90;;;;;;5092859;28;19912;-69
2021/06/11 00:26:10;;;;;;;;;;;10.00;99.90;;;;;;5092563;28;19915;-70
2021/06/11 00:28:37;;;;;;;;;;;10.10;99.90;;;;;;5092867;28;19979;-69
2021/06/11 00:31:03;;;;;;;;;;;10.10;99.90;;;;;;5092791;28;19912;-67
2021/06/11 00:33:30;;;;;;;;;;;10.10;99.90;;;;;;5092870;28;20259;-69
2021/06/11 00:35:57;;;;;;;;;;;10.20;99.90;;;;;;5092716;28;19915;-70
2021/06/11 00:38:23;;;;;;;;;;;10.10;99.90;;;;;;5096606;28;19973;-67
2021/06/11 00:40:50;;;;;;;;;;;10.20;99.90;;;;;;5096459;28;19916;-69
2021/06/11 00:43:17;;;;;;;;;;;10.20;99.90;;;;;;5096309;28;19920;-68
2021/06/11 00:45:45;;;;;;;;;;;10.30;99.90;;;;;;5096355;28;19999;-67
2021/06/11 00:48:12;;;;;;;;;;;10.30;99.90;;;;;;5096647;28;19914;-68
2021/06/11 00:50:39;;;;;;;;;;;10.40;99.90;;;;;;5096499;28;19934;-67
2021/06/11 00:53:10;;;;;;;;;;;10.40;99.90;;;;;;5078022;28;19908;-69
2021/06/11 00:55:37;;;;;;;;;;;10.40;99.90;;;;;;5096271;28;19967;-67
2021/06/11 00:58:04;;;;;;;;;;;10.50;99.90;;;;;;5096381;28;19915;-70
2021/06/11 01:00:31;;;;;;;;;;;10.80;99.90;;;;;;5096264;28;20330;-67
2021/06/11 01:02:57;;;;;;;;;;;11.00;99.90;;;;;;5096104;28;20316;-67
2021/06/11 01:05:24;;;;;;;;;;;11.30;99.90;;;;;;5096268;28;20298;-69
2021/06/11 01:07:52;;;;;;;;;;;11.50;99.90;;;;;;5096060;28;20355;-67
2021/06/11 01:10:19;;;;;;;;;;;11.50;99.90;;;;;;5095967;28;20326;-68
2021/06/11 01:12:46;;;;;;;;;;;11.70;99.90;;;;;;5095609;28;19908;-69
2021/06/11 01:15:13;;;;;;;;;;;11.80;99.90;;;;;;5095936;28;20343;-67
2021/06/11 01:17:40;;;;;;;;;;;12.00;99.90;;;;;;5077694;28;20282;-67
2021/06/11 01:20:09;;;;;;;;;;;12.10;99.90;;;;;;5095779;28;19927;-66
2021/06/11 01:22:42;;;;;;;;;;;12.20;99.90;;;;;;5095877;28;19908;-67
2021/06/11 01:25:10;;;;;;;;;;;12.20;99.90;;;;;;5095457;28;19923;-66
2021/06/11 01:27:38;;;;;;;;;;;12.50;99.90;;;;;;5095710;28;20363;-66
2021/06/11 01:30:14;;;;;;;;;;;12.30;99.90;;;;;;5094422;28;20282;-68
2021/06/11 01:32:42;;;;;;;;;;;12.00;99.90;;;;;;5095401;28;19915;-69
2021/06/11 01:35:19;;;;;;;;;;;11.90;99.90;;;;;;5095641;28;19916;-66
2021/06/11 01:37:47;;;;;;;;;;;11.80;99.90;;;;;;5095624;28;20006;-67
2021/06/11 01:40:15;;;;;;;;;;;11.70;99.90;;;;;;5095657;28;19908;-67
2021/06/11 01:42:44;;;;;;;;;;;11.70;99.90;;;;;;5095281;28;19985;-69
2021/06/11 01:45:12;;;;;;;;;;;11.70;99.90;;;;;;5095088;28;19977;-68
2021/06/11 01:47:41;;;;;;;;;;;11.70;99.90;;;;;;5095319;28;19936;-69
2021/06/11 01:50:09;;;;;;;;;;;11.60;99.90;;;;;;5094865;28;19967;-67
2021/06/11 01:52:37;;;;;;;;;;;11.60;99.90;;;;;;5095281;28;19909;-68
2021/06/11 01:55:04;;;;;;;;;;;11.60;99.90;;;;;;5094985;28;19912;-69
2021/06/11 01:57:31;;;;;;;;;;;11.70;99.90;;;;;;5094934;28;20381;-69
2021/06/11 01:59:59;;;;;;;;;;;11.70;99.90;;;;;;5095146;28;19912;-69
2021/06/11 02:02:26;;;;;;;;;;;11.80;99.90;;;;;;5095035;28;20358;-69
2021/06/11 02:04:52;;;;;;;;;;;11.80;99.90;;;;;;5094745;28;19916;-68
2021/06/11 02:07:19;;;;;;;;;;;11.80;99.90;;;;;;5095035;28;19908;-69
2021/06/11 02:09:47;;;;;;;;;;;11.90;99.90;;;;;;5094714;28;19908;-68
2021/06/11 02:12:14;;;;;;;;;;;11.90;99.90;;;;;;5094864;28;20434;-69
2021/06/11 02:14:41;;;;;;;;;;;12.00;99.90;;;;;;5094667;28;19908;-69
2021/06/11 02:17:09;;;;;;;;;;;12.00;99.90;;;;;;5094506;28;19908;-68
2021/06/11 02:19:36;;;;;;;;;;;12.20;99.90;;;;;;5094812;28;19908;-67
2021/06/11 02:22:03;;;;;;;;;;;12.20;99.90;;;;;;5076434;28;20220;-69
2021/06/11 02:24:32;;;;;;;;;;;12.20;99.90;;;;;;5094402;28;19916;-69
2021/06/11 02:26:59;;;;;;;;;;;12.30;99.90;;;;;;5094736;28;20392;-68
2021/06/11 02:29:26;;;;;;;;;;;12.30;99.90;;;;;;5094592;28;19996;-68
2021/06/11 02:31:52;;;;;;;;;;;12.30;99.90;;;;;;5094708;28;19916;-69
2021/06/11 02:34:19;;;;;;;;;;;12.30;99.90;;;;;;5094445;28;19908;-68
2021/06/11 02:36:46;;;;;;;;;;;12.30;99.90;;;;;;5094406;28;20286;-69
2021/06/11 02:39:12;;;;;;;;;;;12.40;99.90;;;;;;5094605;28;19953;-69
2021/06/11 02:41:45;;;;;;;;;;;12.30;99.90;;;;;;5094001;28;19916;-69
2021/06/11 02:44:12;;;;;;;;;;;12.40;99.90;;;;;;5094361;28;19916;-69
2021/06/11 02:46:39;;;;;;;;;;;12.50;99.90;;;;;;5094265;28;19947;-69
2021/06/11 02:49:05;;;;;;;;;;;12.60;99.90;;;;;;5094043;28;19908;-69
2021/06/11 02:51:34;;;;;;;;;;;12.70;99.90;;;;;;5094268;28;20370;-69
2021/06/11 02:54:02;;;;;;;;;;;12.70;99.90;;;;;;5093985;28;19943;-67
2021/06/11 02:56:48;;;;;;;;;;;12.80;99.90;;;;;;5075729;28;20294;-67
2021/06/11 02:59:21;;;;;;;;;;;12.80;99.90;;;;;;5093471;28;19908;-68
2021/06/11 03:01:54;;;;;;;;;;;12.80;99.90;;;;;;5093217;28;19928;-68
2021/06/11 03:04:23;;;;;;;;;;;12.90;99.90;;;;;;5093756;28;20389;-68
2021/06/11 03:06:51;;;;;;;;;;;12.90;99.90;;;;;;5093621;28;19908;-69
2021/06/11 03:09:21;;;;;;;;;;;13.00;99.90;;;;;;5093866;28;19920;-68
2021/06/11 03:11:48;;;;;;;;;;;13.00;99.90;;;;;;5093711;28;19915;-68
2021/06/11 03:14:16;;;;;;;;;;;13.00;99.90;;;;;;5093962;28;20366;-69
2021/06/11 03:16:46;;;;;;;;;;;13.10;99.90;;;;;;5093579;28;19915;-67
2021/06/11 03:19:15;;;;;;;;;;;13.10;99.90;;;;;;5093814;28;19918;-68
2021/06/11 03:21:43;;;;;;;;;;;13.00;99.90;;;;;;5093810;28;19908;-67
2021/06/11 03:24:16;;;;;;;;;;;13.30;99.90;;;;;;5093542;28;20011;-67
2021/06/11 03:26:46;;;;;;;;;;;13.40;99.90;;;;;;5094218;28;20004;-67
2021/06/11 03:29:26;;;;;;;;;;;13.60;99.90;;;;;;5095391;28;20432;-69
2021/06/11 03:31:56;;;;;;;;;;;13.50;99.90;;;;;;5094858;28;19933;-67
2021/06/11 03:34:27;;;;;;;;;;;13.40;99.90;;;;;;5075289;28;20004;-66
2021/06/11 03:36:55;;;;;;;;;;;13.30;99.90;;;;;;5093152;28;20342;-66
2021/06/11 03:39:30;;;;;;;;;;;13.30;99.90;;;;;;5093594;28;19915;-67
2021/06/11 03:41:58;;;;;;;;;;;13.40;99.90;;;;;;5093071;28;19973;-66
2021/06/11 03:44:27;;;;;;;;;;;13.40;99.90;;;;;;5093355;28;19917;-67
2021/06/11 03:46:55;;;;;;;;;;;13.50;99.90;;;;;;5093127;28;19969;-67
2021/06/11 03:49:22;;;;;;;;;;;13.60;99.90;;;;;;5093197;28;19908;-68
2021/06/11 03:51:52;;;;;;;;;;;13.50;99.90;;;;;;5092938;28;19908;-68
2021/06/11 03:54:20;;;;;;;;;;;13.50;99.90;;;;;;5093006;28;20352;-68
2021/06/11 03:56:48;;;;;;;;;;;13.50;99.90;;;;;;5092296;28;20002;-68
2021/06/11 03:59:15;;;;;;;;;;;13.60;99.90;;;;;;5093075;28;19961;-67
2021/06/11 04:01:47;;;;;;;;;;;13.60;99.90;;;;;;5093299;28;19909;-67
2021/06/11 04:04:14;;;;;;;;;;;13.50;99.90;;;;;;5093163;28;20374;-67
2021/06/11 04:06:49;;;;;;;;;;;13.50;99.90;;;;;;5075046;28;19915;-67
2021/06/11 04:09:18;;;;;;;;;;;13.60;99.90;;;;;;5093027;28;19908;-68
2021/06/11 04:11:48;;;;;;;;;;;13.50;99.90;;;;;;5094177;28;20286;-67
2021/06/11 04:14:25;;;;;;;;;;;13.50;99.90;;;;;;5097245;28;19908;-68
2021/06/11 04:16:56;;;;;;;;;;;13.50;99.90;;;;;;5097018;28;19908;-68
2021/06/11 04:19:27;;;;;;;;;;;13.50;99.90;;;;;;5097090;28;20396;-68
2021/06/11 04:21:56;;;;;;;;;;;13.60;99.90;;;;;;5096833;28;19908;-68
2021/06/11 04:24:26;;;;;;;;;;;13.60;99.90;;;;;;5097152;28;19959;-68
2021/06/11 04:26:54;;;;;;;;;;;13.60;99.90;;;;;;5096638;28;19961;-67
2021/06/11 04:29:22;;;;;;;;;;;13.60;99.90;;;;;;5097034;28;19915;-66
2021/06/11 04:31:51;;;;;;;;;;;13.60;99.90;;;;;;5096887;28;19912;-66
2021/06/11 04:34:19;;;;;;;;;;;13.60;99.90;;;;;;5096952;28;19908;-67
2021/06/11 04:36:46;;;;;;;;;;;13.60;99.90;;;;;;5096546;28;19908;-66
2021/06/11 04:39:13;;;;;;;;;;;13.50;99.90;;;;;;5096795;28;19908;-67
2021/06/11 04:41:40;;;;;;;;;;;13.70;99.90;;;;;;5096475;28;19912;-67
2021/06/11 04:44:07;;;;;;;;;;;13.70;99.90;;;;;;5096761;28;19916;-68
2021/06/11 04:46:34;;;;;;;;;;;13.70;99.90;;;;;;5096407;28;19915;-67
2021/06/11 04:49:01;;;;;;;;;;;13.70;99.90;;;;;;5096479;28;19908;-68
2021/06/11 04:51:28;;;;;;;;;;;13.60;99.90;;;;;;5096574;28;20538;-68
2021/06/11 04:53:55;;;;;;;;;;;13.60;99.90;;;;;;5096354;28;19924;-68
2021/06/11 04:56:21;;;;;;;;;;;13.50;99.90;;;;;;5096240;28;19908;-69
2021/06/11 04:58:51;;;;;;;;;;;13.50;99.90;;;;;;5096208;28;19913;-69
2021/06/11 05:01:18;;;;;;;;;;;13.50;99.90;;;;;;5096359;28;19915;-69
2021/06/11 05:03:44;;;;;;;;;;;13.50;99.90;;;;;;5096160;28;20351;-69
2021/06/11 05:06:11;;;;;;;;;;;13.40;99.90;;;;;;5096173;28;19916;-69
2021/06/11 05:08:38;;;;;;;;;;;13.50;99.90;;;;;;5096091;28;19908;-68
2021/06/11 05:11:04;;;;;;;;;;;13.50;99.90;;;;;;5095847;28;19908;-69
2021/06/11 05:13:31;;;;;;;;;;;13.60;99.90;;;;;;5095882;28;19909;-69
2021/06/11 05:15:58;;;;;;;;;;;13.60;99.90;;;;;;5095922;28;19924;-69
2021/06/11 05:18:28;;;;;;;;;;;13.50;99.90;;;;;;5095733;28;19935;-69
2021/06/11 05:20:55;;;;;;;;;;;13.50;99.90;;;;;;5095554;28;19915;-69
2021/06/11 05:23:22;;;;;;;;;;;13.60;99.90;;;;;;5094667;28;19915;-68
2021/06/11 05:25:49;;;;;;;;;;;13.60;99.90;;;;;;5095747;28;20366;-68
2021/06/11 05:28:17;;;;;;;;;;;13.60;99.90;;;;;;5095714;28;19908;-69
2021/06/11 05:30:44;;;;;;;;;;;13.60;99.90;;;;;;5095656;28;19909;-68
2021/06/11 05:33:10;;;;;;;;;;;13.60;99.90;;;;;;5095728;28;19941;-69
2021/06/11 05:35:37;;;;;;;;;;;13.60;99.90;;;;;;5095522;28;19908;-68
2021/06/11 05:38:05;;;;;;;;;;;13.60;99.90;;;;;;5095615;28;19912;-66
2021/06/11 05:40:36;;;;;;;;;;;13.60;99.90;;;;;;5095348;28;19910;-68
2021/06/11 05:43:03;;;;;;;;;;;13.60;99.90;;;;;;5095184;28;19927;-69
2021/06/11 05:45:30;;;;;;;;;;;13.50;99.90;;;;;;5095380;28;19916;-69
2021/06/11 05:47:58;;;;;;;;;;;13.50;99.90;;;;;;5095581;28;19939;-68
2021/06/11 05:50:26;;;;;;;;;;;13.60;99.90;;;;;;5095321;28;19942;-69
2021/06/11 05:52:53;;;;;;;;;;;13.60;99.90;;;;;;5095036;28;19908;-67
2021/06/11 05:55:20;;;;;;;;;;;13.60;99.90;;;;;;5095060;28;19954;-69
2021/06/11 05:57:46;;;;;;;;;;;13.50;99.90;;;;;;5095301;28;20286;-69
2021/06/11 06:00:13;;;;;;;;;;;13.50;99.90;;;;;;5095325;28;19947;-68
2021/06/11 06:02:40;;;;;;;;;;;13.50;99.90;;;;;;5095043;28;19911;-69
2021/06/11 06:05:08;;;;;;;;;;;13.40;99.90;;;;;;5094832;28;20328;-66
2021/06/11 06:07:38;;;;;;;;;;;13.50;99.90;;;;;;5094909;28;19908;-67
2021/06/11 06:10:06;;;;;;;;;;;13.40;99.90;;;;;;5095066;28;19908;-69
2021/06/11 06:12:32;;;;;;;;;;;13.40;99.90;;;;;;5094981;28;20366;-69
2021/06/11 06:14:59;;;;;;;;;;;13.40;99.90;;;;;;5094810;28;19923;-69
2021/06/11 06:17:26;;;;;;;;;;;13.40;99.90;;;;;;5094784;28;20325;-68
2021/06/11 06:19:53;;;;;;;;;;;13.40;99.90;;;;;;5076297;28;19974;-69
2021/06/11 06:22:19;;;;;;;;;;;13.50;99.90;;;;;;5094546;28;19931;-69
2021/06/11 06:24:46;;;;;;;;;;;13.50;99.90;;;;;;5094289;28;20011;-70
2021/06/11 06:27:13;;;;;;;;;;;13.50;99.90;;;;;;5094698;28;19948;-70
2021/06/11 06:29:39;;;;;;;;;;;13.40;99.90;;;;;;5094975;28;20321;-69
2021/06/11 06:32:06;;;;;;;;;;;13.20;99.90;;;;;;5094552;28;19909;-70
2021/06/11 06:34:33;;;;;;;;;;;13.20;99.90;;;;;;5094126;28;19908;-69
2021/06/11 06:37:00;;;;;;;;;;;13.10;99.90;;;;;;5094287;28;20017;-70
2021/06/11 06:39:27;;;;;;;;;;;13.00;99.90;;;;;;5094419;28;19961;-70
2021/06/11 06:41:55;;;;;;;;;;;12.90;99.90;;;;;;5094351;28;19951;-70
2021/06/11 06:44:22;;;;;;;;;;;12.90;99.90;;;;;;5094214;28;19927;-69
2021/06/11 06:46:48;;;;;;;;;;;12.90;99.90;;;;;;5094283;28;19919;-69
2021/06/11 06:49:15;;;;;;;;;;;12.90;99.90;;;;;;5094315;28;19912;-69
2021/06/11 06:51:42;;;;;;;;;;;13.00;99.90;;;;;;5094205;28;19908;-69
2021/06/11 06:54:09;;;;;;;;;;;13.00;99.90;;;;;;5094404;28;19912;-69
2021/06/11 06:56:35;;;;;;;;;;;13.00;99.90;;;;;;5094095;28;19908;-69
2021/06/11 06:59:02;;;;;;;;;;;13.00;99.90;;;;;;5093945;28;20308;-69
2021/06/11 07:01:29;;;;;;;;;;;13.10;99.90;;;;;;5094208;28;20274;-70
2021/06/11 07:04:00;;;;;;;;;;;13.10;99.90;;;;;;5093981;28;20378;-69
2021/06/11 07:06:27;;;;;;;;;;;13.10;99.90;;;;;;5094237;28;19912;-69
2021/06/11 07:08:54;;;;;;;;;;;13.20;99.90;;;;;;5093869;28;19914;-70
2021/06/11 07:11:21;;;;;;;;;;;13.10;99.90;;;;;;5078065;28;19912;-68
2021/06/11 07:13:48;;;;;;;;;;;13.20;99.90;;;;;;5073526;28;19908;-69
2021/06/11 07:16:15;;;;;;;;;;;13.20;99.90;;;;;;5073634;28;19931;-69
2021/06/11 07:18:42;;;;;;;;;;;13.20;99.90;;;;;;5072708;28;19908;-69
2021/06/11 07:21:11;;;;;;;;;;;13.20;99.90;;;;;;5073457;28;19959;-68
2021/06/11 07:23:38;;;;;;;;;;;13.20;99.90;;;;;;5073443;28;20020;-68
2021/06/11 07:26:07;;;;;;;;;;;13.10;99.90;;;;;;5073123;28;19908;-69
2021/06/11 07:28:36;;;;;;;;;;;13.10;99.90;;;;;;5073126;28;19908;-68
2021/06/11 07:31:03;;;;;;;;;;;13.20;99.90;;;;;;5072858;28;20438;-68
2021/06/11 07:33:30;;;;;;;;;;;13.20;99.90;;;;;;5072691;28;19908;-68
2021/06/11 07:35:57;;;;;;;;;;;13.20;99.90;;;;;;5072836;28;20279;-68
2021/06/11 07:38:25;;;;;;;;;;;13.30;99.90;;;;;;5073114;28;20329;-67
2021/06/11 07:40:53;;;;;;;;;;;13.30;99.90;;;;;;5070655;28;20045;-68
2021/06/11 07:43:21;;;;;;;;;;;13.30;99.90;;;;;;5070531;28;19928;-67
2021/06/11 07:45:48;;;;;;;;;;;13.40;99.90;;;;;;5070357;28;19961;-68
2021/06/11 07:48:15;;;;;;;;;;;13.40;99.90;;;;;;5070300;28;19935;-67
2021/06/11 07:50:42;;;;;;;;;;;13.40;99.90;;;;;;5070867;28;19973;-67
2021/06/11 07:53:08;;;;;;;;;;;13.40;99.90;;;;;;5070707;28;19916;-68
2021/06/11 07:55:35;;;;;;;;;;;13.40;99.90;;;;;;5070811;28;19908;-68
2021/06/11 07:58:02;;;;;;;;;;;13.50;99.90;;;;;;5070877;28;19909;-68
2021/06/11 08:00:29;;;;;;;;;;;13.40;99.90;;;;;;5052735;28;19909;-68
2021/06/11 08:02:57;;;;;;;;;;;13.40;99.90;;;;;;5070034;28;19909;-68
2021/06/11 08:05:24;;;;;;;;;;;13.40;99.90;;;;;;5070595;28;20011;-67
2021/06/11 08:07:50;;;;;;;;;;;13.40;99.90;;;;;;5070595;28;19916;-68
2021/06/11 08:10:17;;;;;;;;;;;13.30;99.90;;;;;;5070664;28;19915;-68
2021/06/11 08:12:44;;;;;;;;;;;13.30;99.90;;;;;;5070312;28;19912;-68
2021/06/11 08:15:11;;;;;;;;;;;13.30;99.90;;;;;;5070754;28;19909;-68
2021/06/11 08:17:38;;;;;;;;;;;13.40;99.90;;;;;;5070181;28;20045;-68
2021/06/11 08:20:09;;;;;;;;;;;13.50;99.90;;;;;;5052123;28;20290;-68
2021/06/11 08:22:37;;;;;;;;;;;13.50;99.90;;;;;;5070662;28;19913;-68
2021/06/11 08:25:08;;;;;;;;;;;13.50;99.90;;;;;;5070228;28;20363;-67
2021/06/11 08:27:35;;;;;;;;;;;13.50;99.90;;;;;;5070787;28;20409;-68
2021/06/11 08:30:02;;;;;;;;;;;13.50;99.90;;;;;;5070653;28;20405;-67
2021/06/11 08:32:28;;;;;;;;;;;13.40;99.90;;;;;;5069778;28;19913;-67
2021/06/11 08:34:55;;;;;;;;;;;13.30;99.90;;;;;;5070228;28;20299;-68
2021/06/11 08:37:23;;;;;;;;;;;13.20;99.90;;;;;;5070201;28;20277;-69
2021/06/11 08:39:53;;;;;;;;;;;13.10;99.90;;;;;;5070135;28;19909;-69
2021/06/11 08:42:32;;;;;;;;;;;12.90;99.90;;;;;;5070139;28;19928;-69
2021/06/11 08:45:03;;;;;;;;;;;12.80;99.90;;;;;;5069575;28;19927;-69
2021/06/11 08:47:30;;;;;;;;;;;12.70;99.90;;;;;;5070004;28;20367;-68
2021/06/11 08:49:57;;;;;;;;;;;12.70;99.90;;;;;;5070469;28;19909;-68
2021/06/11 08:52:24;;;;;;;;;;;12.70;99.90;;;;;;5070287;28;19960;-69
2021/06/11 08:54:51;;;;;;;;;;;12.70;99.90;;;;;;5069899;28;19915;-68
2021/06/11 08:57:19;;;;;;;;;;;12.50;99.90;;;;;;5071440;28;19916;-69
2021/06/11 08:59:47;;;;;;;;;;;12.50;99.90;;;;;;5073812;28;19912;-68
2021/06/11 09:02:14;;;;;;;;;;;12.40;99.90;;;;;;5073334;28;19970;-69
2021/06/11 09:04:42;;;;;;;;;;;12.50;99.90;;;;;;5073735;28;19966;-67
2021/06/11 09:07:28;;;;;;;;;;;12.40;99.90;;;;;;5075449;28;19909;-69
2021/06/11 09:10:03;;;;;;;;;;;12.30;99.90;;;;;;5076043;28;19985;-68
2021/06/11 09:12:30;;;;;;;;;;;12.30;99.90;;;;;;5076018;28;19931;-70
2021/06/11 09:14:57;;;;;;;;;;;12.30;99.90;;;;;;5075455;28;19909;-70
2021/06/11 09:17:34;;;;;;;;;;;12.30;99.90;;;;;;5075639;28;19923;-69
2021/06/11 09:20:17;;;;;;;;;;;12.20;99.90;;;;;;5076010;28;19908;-70
2021/06/11 09:22:54;;;;;;;;;;;12.20;99.90;;;;;;5075556;28;19916;-69
2021/06/11 09:25:26;;;;;;;;;;;12.30;99.90;;;;;;5075489;28;19924;-69
2021/06/11 09:27:58;;;;;;;;;;;12.30;99.90;;;;;;5075604;28;19909;-69
2021/06/11 09:30:30;;;;;;;;;;;12.30;99.90;;;;;;5075447;28;20294;-70
2021/06/11 09:32:58;;;;;;;;;;;12.40;99.90;;;;;;5075298;28;19915;-69
2021/06/11 09:35:43;;;;;;;;;;;12.40;99.90;;;;;;5075299;28;19995;-68
2021/06/11 09:38:18;;;;;;;;;;;12.30;99.90;;;;;;5075311;28;19954;-69
2021/06/11 09:40:50;;;;;;;;;;;12.30;99.90;;;;;;5074873;28;20252;-70
2021/06/11 09:43:17;;;;;;;;;;;12.20;99.90;;;;;;5074559;28;20299;-68
2021/06/11 09:45:44;;;;;;;;;;;12.20;99.90;;;;;;5075110;28;20054;-69
2021/06/11 09:48:17;;;;;;;;;;;12.20;99.90;;;;;;5075074;28;19908;-69
2021/06/11 09:50:49;;;;;;;;;;;12.10;99.90;;;;;;5074975;28;19908;-69
2021/06/11 09:53:16;;;;;;;;;;;12.10;99.90;;;;;;5075275;28;19908;-68
2021/06/11 09:55:47;;;;;;;;;;;12.00;99.90;;;;;;5074928;28;20374;-69
2021/06/11 09:58:15;;;;;;;;;;;12.00;99.90;;;;;;5075176;28;19962;-70
2021/06/11 10:00:46;;;;;;;;;;;12.00;99.90;;;;;;5075171;28;19908;-69
2021/06/11 10:03:38;;;;;;;;;;;11.90;99.90;;;;;;5075006;28;19919;-69
2021/06/11 10:06:07;;;;;;;;;;;11.90;99.90;;;;;;5072946;28;20383;-70
2021/06/11 10:08:34;;;;;;;;;;;12.00;99.90;;;;;;5074809;28;19915;-68
2021/06/11 10:11:02;;;;;;;;;;;12.00;99.90;;;;;;5074213;28;19908;-69
2021/06/11 10:13:30;;;;;;;;;;;12.00;99.90;;;;;;5074601;28;19908;-69
2021/06/11 10:16:04;;;;;;;;;;;12.00;99.90;;;;;;5074749;28;19915;-69
2021/06/11 10:18:31;;;;;;;;;;;12.00;99.90;;;;;;5074722;28;19999;-68
2021/06/11 10:20:58;;;;;;;;;;;12.00;99.90;;;;;;5074237;28;19908;-69
2021/06/11 10:23:26;;;;;;;;;;;12.00;99.90;;;;;;5074251;28;20256;-69
2021/06/11 10:25:55;;;;;;;;;;;12.00;99.90;;;;;;5074400;28;19999;-67
2021/06/11 10:28:24;;;;;;;;;;;12.00;99.90;;;;;;5074379;28;20430;-68
2021/06/11 10:30:55;;;;;;;;;;;12.00;99.90;;;;;;5074338;28;20327;-68
2021/06/11 10:33:40;;;;;;;;;;;12.00;99.90;;;;;;5074382;28;20274;-69
2021/06/11 10:36:30;;;;;;;;;;;12.00;99.90;;;;;;5074566;28;19912;-70
2021/06/11 10:38:57;;;;;;;;;;;12.00;99.90;;;;;;5073904;28;19914;-69
2021/06/11 10:41:25;;;;;;;;;;;12.00;99.90;;;;;;5074059;28;19908;-69
2021/06/11 10:43:52;;;;;;;;;;;12.00;99.90;;;;;;5074406;28;19916;-69
2021/06/11 10:46:21;;;;;;;;;;;12.00;99.90;;;;;;5074190;28;19919;-70
2021/06/11 10:48:57;;;;;;;;;;;12.00;99.90;;;;;;5073850;28;19916;-69
2021/06/11 10:51:34;;;;;;;;;;;11.90;99.90;;;;;;5074236;28;19999;-69
2021/06/11 10:54:18;;;;;;;;;;;11.90;99.90;;;;;;5074897;28;19909;-69
2021/06/11 10:57:00;;;;;;;;;;;11.90;99.90;;;;;;5073842;28;19908;-69
2021/06/11 10:59:37;;;;;;;;;;;11.80;99.90;;;;;;5073754;28;19996;-69
2021/06/11 11:02:04;;;;;;;;;;;11.80;99.90;;;;;;5073947;28;19922;-69
2021/06/11 11:04:35;;;;;;;;;;;11.70;99.90;;;;;;5073818;28;20340;-69
2021/06/11 11:07:19;;;;;;;;;;;11.80;99.90;;;;;;5073527;28;20375;-69
2021/06/11 11:09:53;;;;;;;;;;;11.70;99.90;;;;;;5073556;28;19995;-69
2021/06/11 11:12:20;;;;;;;;;;;11.70;99.90;;;;;;5073605;28;19995;-68
2021/06/11 11:14:46;;;;;;;;;;;11.60;99.90;;;;;;5073299;28;19915;-68
2021/06/11 11:17:13;;;;;;;;;;;11.60;99.90;;;;;;5073373;28;19924;-69
2021/06/11 11:19:47;;;;;;;;;;;11.60;99.90;;;;;;5073626;28;19954;-68
2021/06/11 11:22:24;;;;;;;;;;;11.60;99.90;;;;;;5072751;28;19908;-68
2021/06/11 11:24:51;;;;;;;;;;;11.60;99.90;;;;;;5073197;28;19923;-69
2021/06/11 11:27:18;;;;;;;;;;;11.50;99.90;;;;;;5073236;28;20291;-68
2021/06/11 11:29:45;;;;;;;;;;;11.50;99.90;;;;;;5073394;28;19934;-69
2021/06/11 11:32:11;;;;;;;;;;;11.40;99.90;;;;;;5073141;28;20263;-69
2021/06/11 11:34:38;;;;;;;;;;;11.40;99.90;;;;;;5073289;28;19939;-68
2021/06/11 11:37:05;;;;;;;;;;;11.40;99.90;;;;;;5072983;28;19915;-68
2021/06/11 11:39:31;;;;;;;;;;;11.40;99.90;;;;;;5072804;28;19961;-68
2021/06/11 11:41:58;;;;;;;;;;;11.40;99.90;;;;;;5072928;28;20365;-68
2021/06/11 11:44:30;;;;;;;;;;;11.30;99.90;;;;;;5072907;28;20295;-68
2021/06/11 11:46:56;;;;;;;;;;;11.30;99.90;;;;;;5072970;28;19909;-67
2021/06/11 11:49:23;;;;;;;;;;;11.30;99.90;;;;;;5072962;28;19920;-70
2021/06/11 11:51:50;;;;;;;;;;;11.30;99.90;;;;;;5072891;28;20003;-69
2021/06/11 11:54:17;;;;;;;;;;;11.30;99.90;;;;;;5072941;28;19908;-69
2021/06/11 11:56:44;;;;;;;;;;;11.40;99.90;;;;;;5072704;28;19931;-68
2021/06/11 11:59:11;;;;;;;;;;;11.40;99.90;;;;;;5072959;28;19915;-68
2021/06/11 12:01:38;;;;;;;;;;;11.40;99.90;;;;;;5073084;28;19954;-69
2021/06/11 12:04:05;;;;;;;;;;;11.40;99.90;;;;;;5072959;28;19959;-68
2021/06/11 12:06:31;;;;;;;;;;;11.40;99.90;;;;;;5073088;28;20386;-69
2021/06/11 12:08:58;;;;;;;;;;;11.40;99.90;;;;;;5072719;28;19962;-68
2021/06/11 12:11:25;;;;;;;;;;;11.40;99.90;;;;;;5072690;28;19908;-69
2021/06/11 12:13:51;;;;;;;;;;;11.40;99.90;;;;;;5072875;28;19908;-68
2021/06/11 12:16:18;;;;;;;;;;;11.40;99.90;;;;;;5072856;28;20007;-69
2021/06/11 12:18:44;;;;;;;;;;;11.30;99.90;;;;;;5072432;28;19919;-69
2021/06/11 12:21:11;;;;;;;;;;;11.30;99.90;;;;;;5072855;28;19954;-68
2021/06/11 12:23:38;;;;;;;;;;;11.20;99.90;;;;;;5082119;28;19908;-69
2021/06/11 12:26:05;;;;;;;;;;;11.30;99.90;;;;;;5088889;28;19994;-70
2021/06/11 12:28:31;;;;;;;;;;;11.20;99.90;;;;;;5088260;28;19908;-70
2021/06/11 12:31:00;;;;;;;;;;;11.30;99.90;;;;;;5081825;28;19908;-69
2021/06/11 12:33:28;;;;;;;;;;;11.30;99.90;;;;;;5075632;28;19908;-70
2021/06/11 12:35:54;;;;;;;;;;;11.30;99.90;;;;;;5077199;28;19953;-70
2021/06/11 12:38:21;;;;;;;;;;;11.30;99.90;;;;;;5076950;28;20316;-69
2021/06/11 12:40:49;;;;;;;;;;;11.20;99.90;;;;;;5077129;28;19909;-69
2021/06/11 12:43:19;;;;;;;;;;;11.20;99.90;;;;;;5076488;28;19920;-69
2021/06/11 12:45:46;;;;;;;;;;;11.20;99.90;;;;;;5076497;28;19971;-69
2021/06/11 12:48:13;;;;;;;;;;;11.20;99.90;;;;;;5076698;28;20061;-69
2021/06/11 12:50:40;;;;;;;;;;;11.20;99.90;;;;;;5076621;28;19908;-69
2021/06/11 12:53:07;;;;;;;;;;;11.10;99.90;;;;;;5075949;28;19962;-68
2021/06/11 12:55:36;;;;;;;;;;;11.10;99.90;;;;;;5076490;28;19915;-68
2021/06/11 12:58:02;;;;;;;;;;;11.10;99.90;;;;;;5075778;28;19908;-68
2021/06/11 13:00:29;;;;;;;;;;;11.10;99.90;;;;;;5076184;28;19995;-68
2021/06/11 13:02:56;;;;;;;;;;;11.10;99.90;;;;;;5076052;28;19909;-66
2021/06/11 13:05:26;;;;;;;;;;;11.10;99.90;;;;;;5075976;28;19921;-68
2021/06/11 13:07:53;;;;;;;;;;;11.00;99.90;;;;;;5075833;28;19908;-68
2021/06/11 13:10:21;;;;;;;;;;;11.00;99.90;;;;;;5076090;28;19916;-68
2021/06/11 13:12:48;;;;;;;;;;;10.90;99.90;;;;;;5057042;28;19950;-69
2021/06/11 13:15:14;;;;;;;;;;;11.00;99.90;;;;;;5075901;28;19912;-68
2021/06/11 13:17:41;;;;;;;;;;;11.00;99.90;;;;;;5075982;28;19916;-68
2021/06/11 13:20:08;;;;;;;;;;;11.00;99.90;;;;;;5075743;28;19909;-68
2021/06/11 13:22:36;;;;;;;;;;;11.00;99.90;;;;;;5075471;28;19908;-68
2021/06/11 13:25:03;;;;;;;;;;;11.00;99.90;;;;;;5075472;28;20256;-68
2021/06/11 13:27:30;;;;;;;;;;;10.90;99.90;;;;;;5075100;28;19920;-67
2021/06/11 13:29:57;;;;;;;;;;;10.90;99.90;;;;;;5075734;28;19909;-68
2021/06/11 13:32:23;;;;;;;;;;;10.90;99.90;;;;;;5075709;28;20331;-67
2021/06/11 13:34:50;;;;;;;;;;;10.80;99.90;;;;;;5075460;28;19908;-68
2021/06/11 13:37:17;;;;;;;;;;;10.80;99.90;;;;;;5075498;28;19908;-69
2021/06/11 13:39:43;;;;;;;;;;;10.80;99.90;;;;;;5075452;28;19908;-68
2021/06/11 13:42:10;;;;;;;;;;;10.80;99.90;;;;;;5074626;28;20007;-68
2021/06/11 13:44:37;;;;;;;;;;;10.80;99.90;;;;;;5074164;28;19923;-67
2021/06/11 13:47:06;;;;;;;;;;;10.80;99.90;;;;;;5075206;28;20402;-68
2021/06/11 13:49:33;;;;;;;;;;;10.80;99.90;;;;;;5075293;28;19985;-69
2021/06/11 13:51:59;;;;;;;;;;;10.70;99.90;;;;;;5075309;28;20423;-68
2021/06/11 13:54:26;;;;;;;;;;;10.70;99.90;;;;;;5075222;28;19952;-68
2021/06/11 13:56:53;;;;;;;;;;;10.70;99.90;;;;;;5074479;28;19908;-68
2021/06/11 13:59:19;;;;;;;;;;;10.70;99.90;;;;;;5075074;28;19962;-68
2021/06/11 14:01:46;;;;;;;;;;;10.70;99.90;;;;;;5090303;28;20248;-69
2021/06/11 14:04:13;;;;;;;;;;;10.70;99.90;;;;;;5075072;28;20314;-68
2021/06/11 14:06:39;;;;;;;;;;;10.70;99.90;;;;;;5074814;28;20337;-68
2021/06/11 14:09:06;;;;;;;;;;;10.60;99.90;;;;;;5074612;28;20016;-68
2021/06/11 14:11:33;;;;;;;;;;;10.60;99.90;;;;;;5074903;28;20386;-68
2021/06/11 14:13:59;;;;;;;;;;;10.70;99.90;;;;;;5074969;28;20415;-71
2021/06/11 14:16:26;;;;;;;;;;;10.60;99.90;;;;;;5074881;28;19963;-70
2021/06/11 14:18:53;;;;;;;;;;;10.60;99.90;;;;;;5074565;28;20002;-71
2021/06/11 14:21:19;;;;;;;;;;;10.60;99.90;;;;;;5074711;28;19908;-70
2021/06/11 14:23:46;;;;;;;;;;;10.70;99.90;;;;;;5073880;28;19909;-70